sensor_id;sensor_type;location;lat;lon;timestamp;P1;durP1;ratioP1;P2;durP2;ratioP2
56810;SDS011;42691;47.234;27.494;2023-01-16T00:01:58;21.83;;;16.85;;
56810;SDS011;42691;47.234;27.494;2023-01-16T00:04:25;22.98;;;17.30;;
56810;SDS011;42691;47.234;27.494;2023-01-16T00:06:51;22.33;;;18.30;;
56810;SDS011;42691;47.234;27.494;2023-01-16T00:09:17;18.38;;;15.50;;
56810;SDS011;42691;47.234;27.494;2023-01-16T00:11:43;23.38;;;17.90;;
56810;SDS011;42691;47.234;27.494;2023-01-16T00:14:08;24.73;;;17.38;;
56810;SDS011;42691;47.234;27.494;2023-01-16T00:16:34;19.92;;;17.90;;
56810;SDS011;42691;47.234;27.494;2023-01-16T00:18:59;17.60;;;15.70;;
56810;SDS011;42691;47.234;27.494;2023-01-16T00:21:25;21.63;;;15.00;;
56810;SDS011;42691;47.234;27.494;2023-01-16T00:23:54;21.50;;;16.63;;
56810;SDS011;42691;47.234;27.494;2023-01-16T00:26:23;18.85;;;14.57;;
56810;SDS011;42691;47.234;27.494;2023-01-16T00:28:50;22.27;;;16.95;;
56810;SDS011;42691;47.234;27.494;2023-01-16T00:31:15;23.55;;;17.80;;
56810;SDS011;42691;47.234;27.494;2023-01-16T00:33:41;23.88;;;16.80;;
56810;SDS011;42691;47.234;27.494;2023-01-16T00:36:08;27.33;;;18.35;;
56810;SDS011;42691;47.234;27.494;2023-01-16T00:38:34;23.55;;;17.80;;
56810;SDS011;42691;47.234;27.494;2023-01-16T00:41:00;23.15;;;16.55;;
56810;SDS011;42691;47.234;27.494;2023-01-16T00:43:26;26.25;;;18.13;;
56810;SDS011;42691;47.234;27.494;2023-01-16T00:45:51;23.13;;;16.58;;
56810;SDS011;42691;47.234;27.494;2023-01-16T00:48:17;22.88;;;17.67;;
56810;SDS011;42691;47.234;27.494;2023-01-16T00:50:43;19.90;;;15.27;;
56810;SDS011;42691;47.234;27.494;2023-01-16T00:53:08;24.08;;;20.48;;
56810;SDS011;42691;47.234;27.494;2023-01-16T00:55:34;27.13;;;17.10;;
56810;SDS011;42691;47.234;27.494;2023-01-16T00:58:01;26.42;;;17.23;;
56810;SDS011;42691;47.234;27.494;2023-01-16T01:00:28;23.98;;;17.38;;
56810;SDS011;42691;47.234;27.494;2023-01-16T01:02:53;24.88;;;17.05;;
56810;SDS011;42691;47.234;27.494;2023-01-16T01:05:19;21.00;;;17.23;;
56810;SDS011;42691;47.234;27.494;2023-01-16T01:07:44;33.90;;;16.95;;
56810;SDS011;42691;47.234;27.494;2023-01-16T01:10:10;20.90;;;15.25;;
56810;SDS011;42691;47.234;27.494;2023-01-16T01:12:35;20.88;;;15.73;;
56810;SDS011;42691;47.234;27.494;2023-01-16T01:15:01;25.70;;;17.02;;
56810;SDS011;42691;47.234;27.494;2023-01-16T01:17:26;21.95;;;19.23;;
56810;SDS011;42691;47.234;27.494;2023-01-16T01:19:52;24.15;;;16.92;;
56810;SDS011;42691;47.234;27.494;2023-01-16T01:22:17;20.65;;;16.15;;
56810;SDS011;42691;47.234;27.494;2023-01-16T01:24:43;21.58;;;17.13;;
56810;SDS011;42691;47.234;27.494;2023-01-16T01:27:12;20.98;;;18.27;;
56810;SDS011;42691;47.234;27.494;2023-01-16T01:29:38;21.30;;;16.27;;
56810;SDS011;42691;47.234;27.494;2023-01-16T01:32:03;17.05;;;15.30;;
56810;SDS011;42691;47.234;27.494;2023-01-16T01:34:30;19.55;;;16.08;;
56810;SDS011;42691;47.234;27.494;2023-01-16T01:36:58;44.00;;;24.15;;
56810;SDS011;42691;47.234;27.494;2023-01-16T01:39:28;58.42;;;20.75;;
56810;SDS011;42691;47.234;27.494;2023-01-16T01:41:54;20.38;;;15.75;;
56810;SDS011;42691;47.234;27.494;2023-01-16T01:44:50;17.92;;;13.70;;
56810;SDS011;42691;47.234;27.494;2023-01-16T01:47:23;23.40;;;16.35;;
56810;SDS011;42691;47.234;27.494;2023-01-16T01:49:53;23.25;;;16.90;;
56810;SDS011;42691;47.234;27.494;2023-01-16T01:52:21;26.15;;;17.33;;
56810;SDS011;42691;47.234;27.494;2023-01-16T01:54:50;20.40;;;15.32;;
56810;SDS011;42691;47.234;27.494;2023-01-16T01:57:22;26.48;;;16.60;;
56810;SDS011;42691;47.234;27.494;2023-01-16T01:59:52;25.08;;;16.30;;
56810;SDS011;42691;47.234;27.494;2023-01-16T02:02:33;19.42;;;16.58;;
56810;SDS011;42691;47.234;27.494;2023-01-16T02:05:02;20.20;;;16.70;;
56810;SDS011;42691;47.234;27.494;2023-01-16T02:07:30;22.13;;;15.05;;
56810;SDS011;42691;47.234;27.494;2023-01-16T02:09:59;28.85;;;17.88;;
56810;SDS011;42691;47.234;27.494;2023-01-16T02:12:30;19.88;;;15.82;;
56810;SDS011;42691;47.234;27.494;2023-01-16T02:14:56;28.92;;;16.33;;
56810;SDS011;42691;47.234;27.494;2023-01-16T02:17:23;28.80;;;20.45;;
56810;SDS011;42691;47.234;27.494;2023-01-16T02:22:56;17.67;;;14.93;;
56810;SDS011;42691;47.234;27.494;2023-01-16T02:42:44;20.27;;;13.68;;
56810;SDS011;42691;47.234;27.494;2023-01-16T02:45:21;17.67;;;15.57;;
56810;SDS011;42691;47.234;27.494;2023-01-16T02:56:03;20.70;;;17.05;;
56810;SDS011;42691;47.234;27.494;2023-01-16T02:58:35;21.55;;;15.10;;
56810;SDS011;42691;47.234;27.494;2023-01-16T03:01:05;25.23;;;17.42;;
56810;SDS011;42691;47.234;27.494;2023-01-16T03:21:05;20.55;;;16.90;;
56810;SDS011;42691;47.234;27.494;2023-01-16T03:28:54;16.95;;;14.10;;
56810;SDS011;42691;47.234;27.494;2023-01-16T03:31:48;19.40;;;15.50;;
56810;SDS011;42691;47.234;27.494;2023-01-16T03:37:13;25.88;;;18.27;;
56810;SDS011;42691;47.234;27.494;2023-01-16T03:39:56;20.15;;;14.43;;
56810;SDS011;42691;47.234;27.494;2023-01-16T03:42:29;24.48;;;17.42;;
56810;SDS011;42691;47.234;27.494;2023-01-16T03:45:02;22.70;;;15.70;;
56810;SDS011;42691;47.234;27.494;2023-01-16T03:47:34;21.45;;;14.30;;
56810;SDS011;42691;47.234;27.494;2023-01-16T03:50:07;22.40;;;15.75;;
56810;SDS011;42691;47.234;27.494;2023-01-16T03:52:43;19.38;;;17.42;;
56810;SDS011;42691;47.234;27.494;2023-01-16T03:57:51;34.95;;;16.85;;
56810;SDS011;42691;47.234;27.494;2023-01-16T04:00:20;23.10;;;15.93;;
56810;SDS011;42691;47.234;27.494;2023-01-16T04:06:05;29.23;;;18.73;;
56810;SDS011;42691;47.234;27.494;2023-01-16T04:08:38;23.83;;;15.55;;
56810;SDS011;42691;47.234;27.494;2023-01-16T04:11:07;24.83;;;16.45;;
56810;SDS011;42691;47.234;27.494;2023-01-16T04:13:35;24.63;;;16.35;;
56810;SDS011;42691;47.234;27.494;2023-01-16T04:16:03;18.23;;;14.25;;
56810;SDS011;42691;47.234;27.494;2023-01-16T04:18:33;33.00;;;16.30;;
56810;SDS011;42691;47.234;27.494;2023-01-16T04:21:02;20.02;;;14.55;;
56810;SDS011;42691;47.234;27.494;2023-01-16T04:23:30;25.80;;;17.02;;
56810;SDS011;42691;47.234;27.494;2023-01-16T04:25:55;18.23;;;13.60;;
56810;SDS011;42691;47.234;27.494;2023-01-16T04:28:21;20.48;;;16.83;;
56810;SDS011;42691;47.234;27.494;2023-01-16T04:30:46;48.78;;;17.00;;
56810;SDS011;42691;47.234;27.494;2023-01-16T04:33:11;30.98;;;16.92;;
56810;SDS011;42691;47.234;27.494;2023-01-16T04:35:37;23.02;;;16.30;;
56810;SDS011;42691;47.234;27.494;2023-01-16T04:38:02;21.88;;;18.42;;
56810;SDS011;42691;47.234;27.494;2023-01-16T04:40:28;24.58;;;16.50;;
56810;SDS011;42691;47.234;27.494;2023-01-16T04:42:53;21.35;;;14.50;;
56810;SDS011;42691;47.234;27.494;2023-01-16T04:45:22;27.83;;;16.95;;
56810;SDS011;42691;47.234;27.494;2023-01-16T04:47:48;20.77;;;18.10;;
56810;SDS011;42691;47.234;27.494;2023-01-16T04:50:15;22.65;;;16.45;;
56810;SDS011;42691;47.234;27.494;2023-01-16T04:52:41;48.05;;;17.10;;
56810;SDS011;42691;47.234;27.494;2023-01-16T04:55:07;20.02;;;14.70;;
56810;SDS011;42691;47.234;27.494;2023-01-16T04:57:34;20.10;;;17.95;;
56810;SDS011;42691;47.234;27.494;2023-01-16T04:59:59;21.42;;;13.77;;
56810;SDS011;42691;47.234;27.494;2023-01-16T05:02:25;25.63;;;16.48;;
56810;SDS011;42691;47.234;27.494;2023-01-16T05:04:50;20.42;;;17.52;;
56810;SDS011;42691;47.234;27.494;2023-01-16T05:07:16;21.98;;;18.70;;
56810;SDS011;42691;47.234;27.494;2023-01-16T05:09:41;21.60;;;18.30;;
56810;SDS011;42691;47.234;27.494;2023-01-16T05:12:07;26.38;;;18.52;;
56810;SDS011;42691;47.234;27.494;2023-01-16T05:14:32;17.73;;;14.95;;
56810;SDS011;42691;47.234;27.494;2023-01-16T05:16:57;20.63;;;15.80;;
56810;SDS011;42691;47.234;27.494;2023-01-16T05:19:23;20.40;;;14.77;;
56810;SDS011;42691;47.234;27.494;2023-01-16T05:21:48;52.78;;;21.40;;
56810;SDS011;42691;47.234;27.494;2023-01-16T05:24:14;28.05;;;17.98;;
56810;SDS011;42691;47.234;27.494;2023-01-16T05:26:39;23.25;;;17.23;;
56810;SDS011;42691;47.234;27.494;2023-01-16T05:29:05;24.65;;;17.98;;
56810;SDS011;42691;47.234;27.494;2023-01-16T05:31:30;17.75;;;15.40;;
56810;SDS011;42691;47.234;27.494;2023-01-16T05:33:55;25.25;;;17.02;;
56810;SDS011;42691;47.234;27.494;2023-01-16T05:36:21;19.73;;;17.63;;
56810;SDS011;42691;47.234;27.494;2023-01-16T05:38:46;22.67;;;18.02;;
56810;SDS011;42691;47.234;27.494;2023-01-16T05:41:12;29.23;;;19.08;;
56810;SDS011;42691;47.234;27.494;2023-01-16T05:43:37;20.65;;;18.45;;
56810;SDS011;42691;47.234;27.494;2023-01-16T05:46:03;23.27;;;19.58;;
56810;SDS011;42691;47.234;27.494;2023-01-16T05:48:29;23.73;;;20.60;;
56810;SDS011;42691;47.234;27.494;2023-01-16T05:50:56;28.17;;;19.83;;
56810;SDS011;42691;47.234;27.494;2023-01-16T05:53:22;37.28;;;19.05;;
56810;SDS011;42691;47.234;27.494;2023-01-16T05:55:47;28.83;;;19.88;;
56810;SDS011;42691;47.234;27.494;2023-01-16T05:58:13;23.23;;;18.20;;
56810;SDS011;42691;47.234;27.494;2023-01-16T06:00:40;23.55;;;18.83;;
56810;SDS011;42691;47.234;27.494;2023-01-16T06:03:07;27.23;;;20.00;;
56810;SDS011;42691;47.234;27.494;2023-01-16T06:05:33;30.83;;;22.70;;
56810;SDS011;42691;47.234;27.494;2023-01-16T06:07:59;25.17;;;18.55;;
56810;SDS011;42691;47.234;27.494;2023-01-16T06:10:25;25.25;;;17.52;;
56810;SDS011;42691;47.234;27.494;2023-01-16T06:12:51;21.95;;;19.73;;
56810;SDS011;42691;47.234;27.494;2023-01-16T06:15:17;25.40;;;18.90;;
56810;SDS011;42691;47.234;27.494;2023-01-16T06:17:42;56.65;;;19.60;;
56810;SDS011;42691;47.234;27.494;2023-01-16T06:20:08;19.75;;;16.75;;
56810;SDS011;42691;47.234;27.494;2023-01-16T06:22:35;28.50;;;22.17;;
56810;SDS011;42691;47.234;27.494;2023-01-16T06:25:00;23.05;;;19.48;;
56810;SDS011;42691;47.234;27.494;2023-01-16T06:27:26;25.90;;;21.17;;
56810;SDS011;42691;47.234;27.494;2023-01-16T06:29:51;34.28;;;21.17;;
56810;SDS011;42691;47.234;27.494;2023-01-16T06:32:17;25.17;;;20.70;;
56810;SDS011;42691;47.234;27.494;2023-01-16T06:34:43;23.92;;;21.50;;
56810;SDS011;42691;47.234;27.494;2023-01-16T06:37:09;28.38;;;21.17;;
56810;SDS011;42691;47.234;27.494;2023-01-16T06:39:34;25.17;;;18.75;;
56810;SDS011;42691;47.234;27.494;2023-01-16T06:41:59;30.73;;;22.73;;
56810;SDS011;42691;47.234;27.494;2023-01-16T06:44:28;43.03;;;20.38;;
56810;SDS011;42691;47.234;27.494;2023-01-16T06:46:54;23.27;;;17.23;;
56810;SDS011;42691;47.234;27.494;2023-01-16T06:49:19;25.75;;;17.77;;
56810;SDS011;42691;47.234;27.494;2023-01-16T06:51:45;27.83;;;18.75;;
56810;SDS011;42691;47.234;27.494;2023-01-16T06:54:10;38.67;;;20.88;;
56810;SDS011;42691;47.234;27.494;2023-01-16T06:56:36;29.13;;;20.40;;
56810;SDS011;42691;47.234;27.494;2023-01-16T06:59:01;20.38;;;18.13;;
56810;SDS011;42691;47.234;27.494;2023-01-16T07:01:26;25.73;;;17.63;;
56810;SDS011;42691;47.234;27.494;2023-01-16T07:03:52;26.55;;;20.00;;
56810;SDS011;42691;47.234;27.494;2023-01-16T07:06:17;27.50;;;19.08;;
56810;SDS011;42691;47.234;27.494;2023-01-16T07:08:43;28.50;;;18.25;;
56810;SDS011;42691;47.234;27.494;2023-01-16T07:11:08;27.65;;;21.83;;
56810;SDS011;42691;47.234;27.494;2023-01-16T07:13:34;26.33;;;20.88;;
56810;SDS011;42691;47.234;27.494;2023-01-16T07:15:59;27.35;;;24.48;;
56810;SDS011;42691;47.234;27.494;2023-01-16T07:18:54;26.98;;;21.50;;
56810;SDS011;42691;47.234;27.494;2023-01-16T07:24:34;26.40;;;22.05;;
56810;SDS011;42691;47.234;27.494;2023-01-16T07:27:03;27.15;;;24.13;;
56810;SDS011;42691;47.234;27.494;2023-01-16T07:29:31;24.73;;;20.65;;
56810;SDS011;42691;47.234;27.494;2023-01-16T07:31:59;25.92;;;15.82;;
56810;SDS011;42691;47.234;27.494;2023-01-16T07:34:26;35.30;;;23.67;;
56810;SDS011;42691;47.234;27.494;2023-01-16T07:36:52;30.98;;;22.13;;
56810;SDS011;42691;47.234;27.494;2023-01-16T07:39:17;24.02;;;17.52;;
56810;SDS011;42691;47.234;27.494;2023-01-16T07:41:43;20.58;;;18.35;;
56810;SDS011;42691;47.234;27.494;2023-01-16T07:44:09;22.08;;;19.83;;
56810;SDS011;42691;47.234;27.494;2023-01-16T07:46:35;25.52;;;18.92;;
56810;SDS011;42691;47.234;27.494;2023-01-16T07:49:00;22.88;;;15.82;;
56810;SDS011;42691;47.234;27.494;2023-01-16T07:51:26;29.63;;;18.58;;
56810;SDS011;42691;47.234;27.494;2023-01-16T07:53:51;25.98;;;19.27;;
56810;SDS011;42691;47.234;27.494;2023-01-16T07:56:16;21.67;;;16.20;;
56810;SDS011;42691;47.234;27.494;2023-01-16T07:58:42;26.38;;;19.70;;
56810;SDS011;42691;47.234;27.494;2023-01-16T08:01:08;23.10;;;16.58;;
56810;SDS011;42691;47.234;27.494;2023-01-16T08:03:34;31.08;;;21.80;;
56810;SDS011;42691;47.234;27.494;2023-01-16T08:06:00;30.35;;;18.20;;
56810;SDS011;42691;47.234;27.494;2023-01-16T08:08:27;28.00;;;19.45;;
56810;SDS011;42691;47.234;27.494;2023-01-16T08:10:56;115.03;;;32.92;;
56810;SDS011;42691;47.234;27.494;2023-01-16T08:13:24;43.05;;;22.30;;
56810;SDS011;42691;47.234;27.494;2023-01-16T08:15:50;25.20;;;13.82;;
56810;SDS011;42691;47.234;27.494;2023-01-16T08:18:16;23.30;;;18.13;;
56810;SDS011;42691;47.234;27.494;2023-01-16T08:20:43;22.77;;;18.25;;
56810;SDS011;42691;47.234;27.494;2023-01-16T08:23:09;21.83;;;17.63;;
56810;SDS011;42691;47.234;27.494;2023-01-16T08:25:35;24.40;;;19.13;;
56810;SDS011;42691;47.234;27.494;2023-01-16T08:28:01;26.38;;;19.13;;
56810;SDS011;42691;47.234;27.494;2023-01-16T08:30:26;31.67;;;21.55;;
56810;SDS011;42691;47.234;27.494;2023-01-16T08:32:57;22.60;;;18.23;;
56810;SDS011;42691;47.234;27.494;2023-01-16T08:35:23;22.42;;;18.98;;
56810;SDS011;42691;47.234;27.494;2023-01-16T08:37:49;24.98;;;19.85;;
56810;SDS011;42691;47.234;27.494;2023-01-16T08:40:15;30.70;;;19.42;;
56810;SDS011;42691;47.234;27.494;2023-01-16T08:42:41;32.25;;;20.13;;
56810;SDS011;42691;47.234;27.494;2023-01-16T08:45:25;35.38;;;18.98;;
56810;SDS011;42691;47.234;27.494;2023-01-16T08:48:09;24.45;;;19.17;;
56810;SDS011;42691;47.234;27.494;2023-01-16T08:50:54;19.10;;;16.10;;
56810;SDS011;42691;47.234;27.494;2023-01-16T08:53:40;25.52;;;19.08;;
56810;SDS011;42691;47.234;27.494;2023-01-16T08:56:05;29.52;;;23.40;;
56810;SDS011;42691;47.234;27.494;2023-01-16T08:58:31;24.75;;;20.20;;
56810;SDS011;42691;47.234;27.494;2023-01-16T09:00:57;26.55;;;21.13;;
56810;SDS011;42691;47.234;27.494;2023-01-16T09:03:22;24.25;;;18.67;;
56810;SDS011;42691;47.234;27.494;2023-01-16T09:05:48;28.08;;;19.92;;
56810;SDS011;42691;47.234;27.494;2023-01-16T09:08:13;26.92;;;20.13;;
56810;SDS011;42691;47.234;27.494;2023-01-16T09:10:38;28.45;;;20.25;;
56810;SDS011;42691;47.234;27.494;2023-01-16T09:13:04;36.50;;;21.40;;
56810;SDS011;42691;47.234;27.494;2023-01-16T09:15:48;26.70;;;20.40;;
56810;SDS011;42691;47.234;27.494;2023-01-16T09:18:14;23.35;;;18.98;;
56810;SDS011;42691;47.234;27.494;2023-01-16T09:20:40;22.65;;;18.70;;
56810;SDS011;42691;47.234;27.494;2023-01-16T09:23:05;23.80;;;19.95;;
56810;SDS011;42691;47.234;27.494;2023-01-16T09:25:31;44.25;;;21.27;;
56810;SDS011;42691;47.234;27.494;2023-01-16T09:27:57;29.85;;;21.45;;
56810;SDS011;42691;47.234;27.494;2023-01-16T09:30:24;22.45;;;19.77;;
56810;SDS011;42691;47.234;27.494;2023-01-16T09:32:51;24.67;;;19.92;;
56810;SDS011;42691;47.234;27.494;2023-01-16T09:35:16;26.73;;;20.98;;
56810;SDS011;42691;47.234;27.494;2023-01-16T09:37:42;27.83;;;22.73;;
56810;SDS011;42691;47.234;27.494;2023-01-16T09:40:10;28.92;;;21.45;;
56810;SDS011;42691;47.234;27.494;2023-01-16T09:45:34;28.67;;;22.77;;
56810;SDS011;42691;47.234;27.494;2023-01-16T09:48:03;29.90;;;23.23;;
56810;SDS011;42691;47.234;27.494;2023-01-16T09:50:50;31.98;;;22.58;;
56810;SDS011;42691;47.234;27.494;2023-01-16T09:53:19;24.63;;;20.35;;
56810;SDS011;42691;47.234;27.494;2023-01-16T09:56:12;29.90;;;21.20;;
56810;SDS011;42691;47.234;27.494;2023-01-16T09:59:00;22.38;;;19.25;;
56810;SDS011;42691;47.234;27.494;2023-01-16T10:01:38;25.20;;;21.10;;
56810;SDS011;42691;47.234;27.494;2023-01-16T10:04:25;27.27;;;21.83;;
56810;SDS011;42691;47.234;27.494;2023-01-16T10:10:19;27.70;;;20.33;;
56810;SDS011;42691;47.234;27.494;2023-01-16T10:12:21;34.35;;;21.23;;
56810;SDS011;42691;47.234;27.494;2023-01-16T10:14:58;29.30;;;21.95;;
56810;SDS011;42691;47.234;27.494;2023-01-16T10:17:35;22.23;;;19.70;;
56810;SDS011;42691;47.234;27.494;2023-01-16T10:25:24;27.17;;;20.65;;
56810;SDS011;42691;47.234;27.494;2023-01-16T10:30:47;22.58;;;20.20;;
56810;SDS011;42691;47.234;27.494;2023-01-16T10:35:51;32.25;;;24.52;;
56810;SDS011;42691;47.234;27.494;2023-01-16T10:38:22;28.08;;;22.40;;
56810;SDS011;42691;47.234;27.494;2023-01-16T10:43:59;25.70;;;21.40;;
56810;SDS011;42691;47.234;27.494;2023-01-16T10:46:45;26.65;;;19.55;;
56810;SDS011;42691;47.234;27.494;2023-01-16T10:51:57;26.88;;;21.00;;
56810;SDS011;42691;47.234;27.494;2023-01-16T10:54:25;28.50;;;23.02;;
56810;SDS011;42691;47.234;27.494;2023-01-16T10:56:50;43.40;;;24.02;;
56810;SDS011;42691;47.234;27.494;2023-01-16T10:59:16;29.13;;;22.98;;
56810;SDS011;42691;47.234;27.494;2023-01-16T11:01:43;24.02;;;20.73;;
56810;SDS011;42691;47.234;27.494;2023-01-16T11:04:11;30.40;;;21.80;;
56810;SDS011;42691;47.234;27.494;2023-01-16T11:06:37;28.65;;;22.50;;
56810;SDS011;42691;47.234;27.494;2023-01-16T11:11:40;26.75;;;21.73;;
56810;SDS011;42691;47.234;27.494;2023-01-16T11:17:28;25.92;;;18.48;;
56810;SDS011;42691;47.234;27.494;2023-01-16T11:20:19;27.80;;;17.63;;
56810;SDS011;42691;47.234;27.494;2023-01-16T11:22:56;21.25;;;18.92;;
56810;SDS011;42691;47.234;27.494;2023-01-16T11:25:34;25.35;;;17.10;;
56810;SDS011;42691;47.234;27.494;2023-01-16T11:28:00;24.50;;;20.77;;
56810;SDS011;42691;47.234;27.494;2023-01-16T11:30:37;22.23;;;18.00;;
56810;SDS011;42691;47.234;27.494;2023-01-16T11:33:05;21.65;;;15.05;;
56810;SDS011;42691;47.234;27.494;2023-01-16T11:35:39;21.13;;;16.17;;
56810;SDS011;42691;47.234;27.494;2023-01-16T11:38:11;23.90;;;17.88;;
56810;SDS011;42691;47.234;27.494;2023-01-16T11:40:44;30.65;;;19.17;;
56810;SDS011;42691;47.234;27.494;2023-01-16T11:43:15;18.80;;;15.50;;
56810;SDS011;42691;47.234;27.494;2023-01-16T11:46:07;29.33;;;20.30;;
56810;SDS011;42691;47.234;27.494;2023-01-16T11:48:49;20.83;;;16.13;;
56810;SDS011;42691;47.234;27.494;2023-01-16T11:51:19;22.83;;;15.45;;
56810;SDS011;42691;47.234;27.494;2023-01-16T11:53:48;21.50;;;15.63;;
56810;SDS011;42691;47.234;27.494;2023-01-16T12:02:27;42.23;;;20.83;;
56810;SDS011;42691;47.234;27.494;2023-01-16T12:13:23;25.30;;;16.33;;
56810;SDS011;42691;47.234;27.494;2023-01-16T12:50:55;27.25;;;19.38;;
56810;SDS011;42691;47.234;27.494;2023-01-16T12:56:13;26.95;;;19.27;;
56810;SDS011;42691;47.234;27.494;2023-01-16T12:58:57;23.88;;;17.73;;
56810;SDS011;42691;47.234;27.494;2023-01-16T13:01:28;27.73;;;21.92;;
56810;SDS011;42691;47.234;27.494;2023-01-16T13:12:17;22.25;;;18.88;;
56810;SDS011;42691;47.234;27.494;2023-01-16T13:15:11;42.75;;;20.05;;
56810;SDS011;42691;47.234;27.494;2023-01-16T13:17:51;26.63;;;11.38;;
56810;SDS011;42691;47.234;27.494;2023-01-16T13:20:22;19.65;;;12.65;;
56810;SDS011;42691;47.234;27.494;2023-01-16T13:22:50;22.42;;;13.38;;
56810;SDS011;42691;47.234;27.494;2023-01-16T13:28:07;13.88;;;11.07;;
56810;SDS011;42691;47.234;27.494;2023-01-16T13:30:42;16.58;;;12.25;;
56810;SDS011;42691;47.234;27.494;2023-01-16T13:33:09;25.50;;;13.32;;
56810;SDS011;42691;47.234;27.494;2023-01-16T13:35:54;18.92;;;12.10;;
56810;SDS011;42691;47.234;27.494;2023-01-16T13:44:03;17.23;;;13.52;;
56810;SDS011;42691;47.234;27.494;2023-01-16T13:47:01;15.10;;;12.00;;
56810;SDS011;42691;47.234;27.494;2023-01-16T13:49:29;22.20;;;11.93;;
56810;SDS011;42691;47.234;27.494;2023-01-16T13:51:54;24.90;;;11.85;;
56810;SDS011;42691;47.234;27.494;2023-01-16T13:54:22;20.08;;;11.68;;
56810;SDS011;42691;47.234;27.494;2023-01-16T13:57:00;14.40;;;11.18;;
56810;SDS011;42691;47.234;27.494;2023-01-16T14:01:58;19.67;;;11.85;;
56810;SDS011;42691;47.234;27.494;2023-01-16T14:04:25;22.80;;;13.27;;
56810;SDS011;42691;47.234;27.494;2023-01-16T14:06:54;18.25;;;11.60;;
56810;SDS011;42691;47.234;27.494;2023-01-16T14:13:12;22.15;;;13.32;;
56810;SDS011;42691;47.234;27.494;2023-01-16T14:15:50;14.23;;;11.43;;
56810;SDS011;42691;47.234;27.494;2023-01-16T14:19:13;25.90;;;15.45;;
56810;SDS011;42691;47.234;27.494;2023-01-16T14:21:47;15.45;;;10.63;;
56810;SDS011;42691;47.234;27.494;2023-01-16T14:24:41;15.27;;;9.52;;
56810;SDS011;42691;47.234;27.494;2023-01-16T14:27:29;14.75;;;9.63;;
56810;SDS011;42691;47.234;27.494;2023-01-16T14:30:00;19.98;;;13.30;;
56810;SDS011;42691;47.234;27.494;2023-01-16T14:32:28;12.13;;;9.77;;
56810;SDS011;42691;47.234;27.494;2023-01-16T14:37:27;14.60;;;11.93;;
56810;SDS011;42691;47.234;27.494;2023-01-16T14:39:57;23.63;;;12.77;;
56810;SDS011;42691;47.234;27.494;2023-01-16T14:48:09;21.50;;;12.10;;
56810;SDS011;42691;47.234;27.494;2023-01-16T14:51:01;12.55;;;9.27;;
56810;SDS011;42691;47.234;27.494;2023-01-16T14:53:57;21.80;;;11.65;;
56810;SDS011;42691;47.234;27.494;2023-01-16T14:57:00;17.75;;;9.93;;
56810;SDS011;42691;47.234;27.494;2023-01-16T14:59:34;20.02;;;13.23;;
56810;SDS011;42691;47.234;27.494;2023-01-16T15:02:10;11.63;;;10.43;;
56810;SDS011;42691;47.234;27.494;2023-01-16T15:04:54;17.40;;;11.38;;
56810;SDS011;42691;47.234;27.494;2023-01-16T15:07:28;10.48;;;7.38;;
56810;SDS011;42691;47.234;27.494;2023-01-16T15:10:13;14.10;;;9.52;;
56810;SDS011;42691;47.234;27.494;2023-01-16T15:12:44;12.18;;;8.77;;
56810;SDS011;42691;47.234;27.494;2023-01-16T15:15:21;34.95;;;13.57;;
56810;SDS011;42691;47.234;27.494;2023-01-16T15:17:52;17.35;;;8.85;;
56810;SDS011;42691;47.234;27.494;2023-01-16T15:20:43;11.82;;;8.88;;
56810;SDS011;42691;47.234;27.494;2023-01-16T15:23:33;14.75;;;9.73;;
56810;SDS011;42691;47.234;27.494;2023-01-16T15:30:54;14.70;;;11.30;;
56810;SDS011;42691;47.234;27.494;2023-01-16T15:33:31;11.80;;;7.57;;
56810;SDS011;42691;47.234;27.494;2023-01-16T15:36:25;13.13;;;11.70;;
56810;SDS011;42691;47.234;27.494;2023-01-16T15:38:58;13.07;;;10.38;;
56810;SDS011;42691;47.234;27.494;2023-01-16T15:41:29;16.67;;;10.82;;
56810;SDS011;42691;47.234;27.494;2023-01-16T15:44:16;15.30;;;11.93;;
56810;SDS011;42691;47.234;27.494;2023-01-16T15:50:53;17.55;;;11.60;;
56810;SDS011;42691;47.234;27.494;2023-01-16T15:53:01;11.52;;;9.43;;
56810;SDS011;42691;47.234;27.494;2023-01-16T15:55:28;14.68;;;11.90;;
56810;SDS011;42691;47.234;27.494;2023-01-16T15:58:00;16.17;;;11.63;;
56810;SDS011;42691;47.234;27.494;2023-01-16T16:02:58;17.40;;;11.30;;
56810;SDS011;42691;47.234;27.494;2023-01-16T16:05:26;15.27;;;10.23;;
56810;SDS011;42691;47.234;27.494;2023-01-16T16:07:53;17.83;;;12.10;;
56810;SDS011;42691;47.234;27.494;2023-01-16T16:10:20;13.52;;;11.52;;
56810;SDS011;42691;47.234;27.494;2023-01-16T16:13:05;18.52;;;12.52;;
56810;SDS011;42691;47.234;27.494;2023-01-16T16:15:31;13.13;;;10.25;;
56810;SDS011;42691;47.234;27.494;2023-01-16T16:18:16;13.30;;;8.88;;
56810;SDS011;42691;47.234;27.494;2023-01-16T16:20:48;13.77;;;11.57;;
56810;SDS011;42691;47.234;27.494;2023-01-16T16:23:21;13.88;;;11.18;;
56810;SDS011;42691;47.234;27.494;2023-01-16T16:30:45;15.07;;;10.63;;
56810;SDS011;42691;47.234;27.494;2023-01-16T16:33:18;11.48;;;9.70;;
56810;SDS011;42691;47.234;27.494;2023-01-16T16:35:49;19.52;;;12.15;;
56810;SDS011;42691;47.234;27.494;2023-01-16T16:39:02;17.05;;;11.95;;
56810;SDS011;42691;47.234;27.494;2023-01-16T16:48:48;13.13;;;10.93;;
56810;SDS011;42691;47.234;27.494;2023-01-16T16:51:19;16.92;;;11.32;;
56810;SDS011;42691;47.234;27.494;2023-01-16T16:53:50;14.90;;;12.75;;
56810;SDS011;42691;47.234;27.494;2023-01-16T16:56:20;16.40;;;13.30;;
56810;SDS011;42691;47.234;27.494;2023-01-16T16:58:48;11.82;;;10.60;;
56810;SDS011;42691;47.234;27.494;2023-01-16T17:01:17;19.33;;;12.13;;
56810;SDS011;42691;47.234;27.494;2023-01-16T17:03:44;21.67;;;12.13;;
56810;SDS011;42691;47.234;27.494;2023-01-16T17:06:14;17.30;;;12.23;;
56810;SDS011;42691;47.234;27.494;2023-01-16T17:08:43;18.27;;;11.80;;
56810;SDS011;42691;47.234;27.494;2023-01-16T17:11:10;15.68;;;9.90;;
56810;SDS011;42691;47.234;27.494;2023-01-16T17:13:36;13.23;;;10.52;;
56810;SDS011;42691;47.234;27.494;2023-01-16T17:16:01;15.27;;;10.90;;
56810;SDS011;42691;47.234;27.494;2023-01-16T17:18:27;17.92;;;10.80;;
56810;SDS011;42691;47.234;27.494;2023-01-16T17:20:53;14.00;;;10.75;;
56810;SDS011;42691;47.234;27.494;2023-01-16T17:23:20;14.52;;;9.43;;
56810;SDS011;42691;47.234;27.494;2023-01-16T17:25:47;13.70;;;10.32;;
56810;SDS011;42691;47.234;27.494;2023-01-16T17:28:12;14.90;;;10.88;;
56810;SDS011;42691;47.234;27.494;2023-01-16T17:30:39;11.98;;;9.45;;
56810;SDS011;42691;47.234;27.494;2023-01-16T17:33:06;14.32;;;10.68;;
56810;SDS011;42691;47.234;27.494;2023-01-16T17:35:39;14.27;;;11.43;;
56810;SDS011;42691;47.234;27.494;2023-01-16T17:38:09;11.20;;;9.65;;
56810;SDS011;42691;47.234;27.494;2023-01-16T17:40:37;15.05;;;10.10;;
56810;SDS011;42691;47.234;27.494;2023-01-16T17:43:03;13.05;;;10.63;;
56810;SDS011;42691;47.234;27.494;2023-01-16T17:45:47;13.43;;;10.52;;